createdAt,value
2023-03-23T15:58:35.532Z,57.72
2023-03-23T16:01:11.947Z,58.16
2023-03-23T16:03:52.111Z,58.29
2023-03-23T16:06:25.504Z,58.64
2023-03-23T16:08:56.014Z,59.01
2023-03-23T16:11:27.503Z,59.49
2023-03-23T16:13:56.287Z,59.84
2023-03-23T16:16:29.500Z,59.76
2023-03-23T16:19:00.751Z,59.95
2023-03-23T16:21:30.771Z,60.23
2023-03-23T16:23:59.164Z,60.66
2023-03-23T16:26:28.313Z,60.97
2023-03-23T16:29:06.061Z,61.04
2023-03-23T16:31:39.607Z,61.05
2023-03-23T16:34:08.739Z,60.95
2023-03-23T16:36:37.281Z,60.91
2023-03-23T16:39:05.883Z,60.83
2023-03-23T16:41:34.512Z,60.81
2023-03-23T16:44:05.816Z,60.74
2023-03-23T16:46:37.709Z,60.90
2023-03-23T16:49:06.229Z,61.02
2023-03-23T16:51:36.739Z,61.02
2023-03-23T16:54:05.119Z,61.48
2023-03-23T16:56:34.246Z,62.26
2023-03-23T16:59:03.295Z,63.24
2023-03-23T17:01:32.061Z,64.08
2023-03-23T17:04:05.554Z,65.20
2023-03-23T17:06:34.255Z,66.25
2023-03-23T17:09:02.743Z,67.43
2023-03-23T17:11:32.660Z,68.60
2023-03-23T17:14:01.726Z,69.57
2023-03-23T17:16:30.324Z,70.65
2023-03-23T17:19:01.168Z,71.75
2023-03-23T17:21:30.140Z,72.88
2023-03-23T17:24:01.843Z,73.39
2023-03-23T17:26:30.825Z,74.14
2023-03-23T17:28:59.388Z,75.02
2023-03-23T17:31:28.089Z,75.86
2023-03-23T17:33:57.967Z,76.49
2023-03-23T17:36:26.597Z,76.07
2023-03-23T17:38:55.867Z,75.43
2023-03-23T17:41:24.856Z,75.27
2023-03-23T17:43:55.474Z,75.38
2023-03-23T17:46:25.222Z,75.56
2023-03-23T17:48:54.281Z,75.98
2023-03-23T17:51:22.826Z,76.48
2023-03-23T17:53:51.405Z,77.25
2023-03-23T17:56:20.677Z,78.05
2023-03-23T17:58:50.932Z,78.98
2023-03-23T18:01:19.332Z,79.70
2023-03-23T18:03:47.899Z,80.53
2023-03-23T18:06:16.489Z,81.42
2023-03-23T18:08:44.950Z,82.33
2023-03-23T18:11:13.601Z,83.24
2023-03-23T18:13:42.101Z,83.79
2023-03-23T18:16:10.890Z,83.37
2023-03-23T18:18:39.641Z,83.03
2023-03-23T18:21:11.026Z,83.51
2023-03-23T18:23:49.429Z,84.34
2023-03-23T18:26:26.259Z,84.53
2023-03-23T18:28:57.404Z,84.23
2023-03-23T18:31:30.097Z,84.33
2023-03-23T18:34:01.692Z,84.11
2023-03-23T18:36:35.504Z,84.21
2023-03-23T18:39:07.702Z,84.78
2023-03-23T18:41:39.928Z,85.41
2023-03-23T18:44:08.972Z,86.05
2023-03-23T18:46:37.527Z,86.47
2023-03-23T18:49:06.101Z,86.71
2023-03-23T18:51:38.152Z,86.71
2023-03-23T18:54:06.499Z,86.38
2023-03-23T18:56:35.526Z,85.49
2023-03-23T18:59:04.020Z,86.00
2023-03-23T19:01:32.907Z,86.56
2023-03-23T19:04:07.257Z,87.24
2023-03-23T19:06:36.344Z,87.83
2023-03-23T19:09:05.149Z,88.41
2023-03-23T19:11:38.191Z,88.35
2023-03-23T19:14:06.863Z,88.09
2023-03-23T19:16:36.162Z,88.12
2023-03-23T19:19:12.818Z,89.07
2023-03-23T19:21:43.820Z,90.12
2023-03-23T19:24:14.407Z,90.73
2023-03-23T19:26:46.468Z,91.97
2023-03-23T19:29:26.610Z,93.65
2023-03-23T19:32:01.824Z,95.64
2023-03-23T19:34:31.308Z,97.49
2023-03-23T19:37:05.494Z,99.22
2023-03-23T19:39:36.556Z,100.00
2023-03-23T19:42:05.953Z,100.00
2023-03-23T19:44:35.106Z,100.00
2023-03-23T19:47:05.826Z,100.00
2023-03-23T19:49:37.318Z,100.00
2023-03-23T19:52:12.727Z,100.00
2023-03-23T19:54:42.431Z,100.00
2023-03-23T19:57:11.396Z,100.00
2023-03-23T19:59:40.423Z,100.00
2023-03-23T20:02:12.612Z,100.00
2023-03-23T20:04:41.657Z,100.00
2023-03-23T20:07:10.719Z,100.00
2023-03-23T20:09:39.439Z,100.00
2023-03-23T20:12:13.042Z,100.00
2023-03-23T20:14:45.294Z,100.00
2023-03-23T20:17:14.932Z,100.00
2023-03-23T20:19:45.435Z,100.00
2023-03-23T20:22:15.057Z,100.00
2023-03-23T20:24:47.390Z,100.00
2023-03-23T20:27:16.416Z,100.00
2023-03-23T20:29:45.166Z,100.00
2023-03-23T20:32:17.807Z,100.00
2023-03-23T20:34:49.460Z,100.00
2023-03-23T20:37:20.992Z,100.00
2023-03-23T20:39:50.768Z,100.00
2023-03-23T20:42:19.946Z,100.00
2023-03-23T20:44:48.335Z,100.00
2023-03-23T20:47:18.120Z,100.00
2023-03-23T20:49:52.798Z,100.00
2023-03-23T20:52:26.247Z,100.00
2023-03-23T20:54:56.827Z,100.00
2023-03-23T20:57:25.173Z,100.00
2023-03-23T20:59:55.550Z,100.00
2023-03-23T21:02:30.329Z,100.00
2023-03-23T21:05:04.505Z,100.00
2023-03-23T21:07:33.660Z,100.00
2023-03-23T21:10:02.167Z,100.00
2023-03-23T21:12:34.797Z,100.00
2023-03-23T21:15:03.633Z,100.00
2023-03-23T21:17:32.612Z,100.00
2023-03-23T21:20:11.268Z,100.00
2023-03-23T21:22:40.060Z,100.00
2023-03-23T21:25:10.478Z,100.00
2023-03-23T21:27:41.052Z,100.00
2023-03-23T21:30:09.916Z,100.00
2023-03-23T21:32:38.398Z,100.00
2023-03-23T21:35:07.446Z,100.00
2023-03-23T21:37:36.347Z,100.00
2023-03-23T21:40:14.848Z,100.00
2023-03-23T21:42:46.766Z,100.00
2023-03-23T21:45:21.457Z,100.00
2023-03-23T21:47:50.543Z,100.00
2023-03-23T21:50:22.366Z,100.00
2023-03-23T21:52:55.729Z,100.00
2023-03-23T21:55:25.592Z,100.00
2023-03-23T21:57:53.983Z,100.00
2023-03-23T22:00:23.996Z,100.00
2023-03-23T22:02:53.701Z,100.00
2023-03-23T22:05:23.489Z,100.00
2023-03-23T22:07:56.630Z,100.00
2023-03-23T22:10:25.596Z,100.00
2023-03-23T22:12:55.603Z,100.00
2023-03-23T22:15:28.239Z,100.00
2023-03-23T22:17:57.389Z,100.00
2023-03-23T22:20:26.835Z,100.00
2023-03-23T22:22:55.248Z,100.00
2023-03-23T22:25:24.350Z,100.00
2023-03-23T22:27:53.213Z,100.00
2023-03-23T22:30:21.940Z,100.00
2023-03-23T22:32:50.985Z,100.00
2023-03-23T22:35:19.435Z,100.00
2023-03-23T22:37:49.773Z,100.00
2023-03-23T22:40:19.818Z,100.00
2023-03-23T22:42:51.766Z,100.00
2023-03-23T22:45:20.876Z,100.00
2023-03-23T22:47:54.447Z,100.00
2023-03-23T22:50:24.504Z,100.00
2023-03-23T22:52:52.940Z,100.00
2023-03-23T22:55:27.268Z,100.00
2023-03-23T22:57:56.490Z,100.00
2023-03-23T23:00:25.390Z,100.00
2023-03-23T23:02:54.018Z,100.00
2023-03-23T23:05:22.416Z,100.00
2023-03-23T23:07:50.692Z,100.00
2023-03-23T23:10:19.778Z,100.00
2023-03-23T23:12:49.464Z,100.00
2023-03-23T23:15:22.511Z,100.00
2023-03-23T23:17:50.917Z,100.00
2023-03-23T23:20:20.107Z,100.00
2023-03-23T23:22:49.196Z,100.00
2023-03-23T23:25:18.752Z,100.00
2023-03-23T23:27:47.042Z,100.00
2023-03-23T23:30:16.713Z,100.00
2023-03-23T23:32:53.192Z,100.00
2023-03-23T23:35:27.007Z,100.00
2023-03-23T23:37:55.791Z,100.00
2023-03-23T23:40:24.223Z,100.00
2023-03-23T23:42:53.894Z,100.00
2023-03-23T23:45:23.213Z,100.00
2023-03-23T23:48:00.445Z,100.00
2023-03-23T23:50:29.958Z,100.00
2023-03-23T23:52:58.945Z,100.00
2023-03-23T23:55:28.162Z,100.00
2023-03-23T23:57:56.889Z,100.00
